sensor_id;sensor_type;location;lat;lon;timestamp;pressure;altitude;pressure_sealevel;temperature;humidity
77110;BME280;66062;52.464;16.922;2023-04-27T00:00:21;100740.44;;;4.83;70.83
77110;BME280;66062;52.464;16.922;2023-04-27T00:02:46;100730.22;;;4.91;70.70
77110;BME280;66062;52.464;16.922;2023-04-27T00:05:12;100736.47;;;5.03;70.34
77110;BME280;66062;52.464;16.922;2023-04-27T00:07:37;100733.81;;;5.03;70.07
77110;BME280;66062;52.464;16.922;2023-04-27T00:10:05;100738.16;;;5.04;69.94
77110;BME280;66062;52.464;16.922;2023-04-27T00:12:32;100735.44;;;5.05;70.42
77110;BME280;66062;52.464;16.922;2023-04-27T00:14:57;100733.09;;;5.13;69.93
77110;BME280;66062;52.464;16.922;2023-04-27T00:17:23;100727.19;;;5.10;70.04
77110;BME280;66062;52.464;16.922;2023-04-27T00:19:48;100728.34;;;5.06;71.04
77110;BME280;66062;52.464;16.922;2023-04-27T00:22:13;100725.72;;;5.06;71.09
77110;BME280;66062;52.464;16.922;2023-04-27T00:24:39;100722.00;;;5.08;71.29
77110;BME280;66062;52.464;16.922;2023-04-27T00:27:06;100720.50;;;5.04;71.17
77110;BME280;66062;52.464;16.922;2023-04-27T00:29:32;100736.19;;;5.07;71.44
77110;BME280;66062;52.464;16.922;2023-04-27T00:31:57;100725.19;;;5.13;71.51
77110;BME280;66062;52.464;16.922;2023-04-27T00:34:22;100730.38;;;5.15;71.51
77110;BME280;66062;52.464;16.922;2023-04-27T00:36:48;100728.91;;;5.24;71.07
77110;BME280;66062;52.464;16.922;2023-04-27T00:39:13;100728.38;;;5.18;71.04
77110;BME280;66062;52.464;16.922;2023-04-27T00:41:38;100731.53;;;5.24;70.53
77110;BME280;66062;52.464;16.922;2023-04-27T00:44:04;100733.25;;;5.25;70.82
77110;BME280;66062;52.464;16.922;2023-04-27T00:46:31;100732.84;;;5.31;69.86
77110;BME280;66062;52.464;16.922;2023-04-27T00:48:57;100735.16;;;5.23;70.70
77110;BME280;66062;52.464;16.922;2023-04-27T00:51:23;100737.59;;;5.26;71.03
77110;BME280;66062;52.464;16.922;2023-04-27T00:53:56;100740.78;;;5.31;70.44
77110;BME280;66062;52.464;16.922;2023-04-27T00:56:22;100731.53;;;5.24;70.55
77110;BME280;66062;52.464;16.922;2023-04-27T00:58:48;100732.84;;;5.31;70.18
77110;BME280;66062;52.464;16.922;2023-04-27T01:01:13;100736.25;;;5.33;70.54
77110;BME280;66062;52.464;16.922;2023-04-27T01:03:39;100739.84;;;5.32;70.84
77110;BME280;66062;52.464;16.922;2023-04-27T01:06:04;100743.97;;;5.36;70.90
77110;BME280;66062;52.464;16.922;2023-04-27T01:08:30;100742.16;;;5.36;71.03
77110;BME280;66062;52.464;16.922;2023-04-27T01:10:56;100738.75;;;5.34;70.50
77110;BME280;66062;52.464;16.922;2023-04-27T01:13:21;100738.97;;;5.31;71.11
77110;BME280;66062;52.464;16.922;2023-04-27T01:15:47;100739.44;;;5.38;70.39
77110;BME280;66062;52.464;16.922;2023-04-27T01:18:12;100740.56;;;5.34;71.43
77110;BME280;66062;52.464;16.922;2023-04-27T01:20:38;100734.97;;;5.38;70.55
77110;BME280;66062;52.464;16.922;2023-04-27T01:23:04;100743.34;;;5.45;71.62
77110;BME280;66062;52.464;16.922;2023-04-27T01:25:29;100738.34;;;5.40;70.56
77110;BME280;66062;52.464;16.922;2023-04-27T01:27:54;100748.00;;;5.41;71.30
77110;BME280;66062;52.464;16.922;2023-04-27T01:30:20;100747.28;;;5.52;70.13
77110;BME280;66062;52.464;16.922;2023-04-27T01:32:47;100747.91;;;5.43;70.87
77110;BME280;66062;52.464;16.922;2023-04-27T01:35:13;100745.34;;;5.41;71.29
77110;BME280;66062;52.464;16.922;2023-04-27T01:37:39;100747.69;;;5.46;70.92
77110;BME280;66062;52.464;16.922;2023-04-27T01:40:05;100744.72;;;5.38;72.06
77110;BME280;66062;52.464;16.922;2023-04-27T01:42:31;100751.50;;;5.42;71.70
77110;BME280;66062;52.464;16.922;2023-04-27T01:44:56;100752.22;;;5.44;71.71
77110;BME280;66062;52.464;16.922;2023-04-27T01:47:24;100753.81;;;5.46;71.22
77110;BME280;66062;52.464;16.922;2023-04-27T01:49:50;100750.09;;;5.36;72.15
77110;BME280;66062;52.464;16.922;2023-04-27T01:52:15;100745.25;;;5.43;71.82
77110;BME280;66062;52.464;16.922;2023-04-27T01:54:40;100755.72;;;5.44;71.80
77110;BME280;66062;52.464;16.922;2023-04-27T01:57:06;100761.88;;;5.45;72.58
77110;BME280;66062;52.464;16.922;2023-04-27T01:59:31;100756.78;;;5.42;72.46
77110;BME280;66062;52.464;16.922;2023-04-27T02:01:57;100753.19;;;5.43;72.02
77110;BME280;66062;52.464;16.922;2023-04-27T02:04:22;100759.44;;;5.42;72.46
77110;BME280;66062;52.464;16.922;2023-04-27T02:06:47;100753.59;;;5.37;73.21
77110;BME280;66062;52.464;16.922;2023-04-27T02:09:13;100754.22;;;5.40;72.36
77110;BME280;66062;52.464;16.922;2023-04-27T02:11:38;100757.19;;;5.36;72.64
77110;BME280;66062;52.464;16.922;2023-04-27T02:14:04;100760.78;;;5.35;72.96
77110;BME280;66062;52.464;16.922;2023-04-27T02:16:29;100757.19;;;5.36;73.62
77110;BME280;66062;52.464;16.922;2023-04-27T02:18:55;100757.09;;;5.37;72.79
77110;BME280;66062;52.464;16.922;2023-04-27T02:21:20;100765.44;;;5.44;72.83
77110;BME280;66062;52.464;16.922;2023-04-27T02:23:46;100768.53;;;5.38;73.23
77110;BME280;66062;52.464;16.922;2023-04-27T02:26:18;100776.25;;;5.41;73.41
77110;BME280;66062;52.464;16.922;2023-04-27T02:28:44;100771.19;;;5.38;73.32
77110;BME280;66062;52.464;16.922;2023-04-27T02:31:13;100768.84;;;5.33;73.71
77110;BME280;66062;52.464;16.922;2023-04-27T02:33:39;100769.78;;;5.32;73.89
77110;BME280;66062;52.464;16.922;2023-04-27T02:36:06;100768.94;;;5.32;74.54
77110;BME280;66062;52.464;16.922;2023-04-27T02:38:31;100772.84;;;5.26;74.66
77110;BME280;66062;52.464;16.922;2023-04-27T02:40:57;100779.38;;;5.21;74.79
77110;BME280;66062;52.464;16.922;2023-04-27T02:43:22;100771.66;;;5.18;75.51
77110;BME280;66062;52.464;16.922;2023-04-27T02:45:48;100776.41;;;5.12;75.56
77110;BME280;66062;52.464;16.922;2023-04-27T02:48:13;100777.13;;;5.14;75.58
77110;BME280;66062;52.464;16.922;2023-04-27T02:50:43;100770.91;;;5.15;75.23
77110;BME280;66062;52.464;16.922;2023-04-27T02:53:12;100768.03;;;5.18;75.71
77110;BME280;66062;52.464;16.922;2023-04-27T02:55:45;100782.56;;;5.26;76.08
77110;BME280;66062;52.464;16.922;2023-04-27T02:58:14;100774.00;;;5.22;75.88
77110;BME280;66062;52.464;16.922;2023-04-27T03:00:39;100785.28;;;5.11;75.48
77110;BME280;66062;52.464;16.922;2023-04-27T03:03:06;100789.22;;;5.18;76.09
77110;BME280;66062;52.464;16.922;2023-04-27T03:05:32;100786.56;;;5.18;76.35
77110;BME280;66062;52.464;16.922;2023-04-27T03:07:58;100789.97;;;5.21;75.82
77110;BME280;66062;52.464;16.922;2023-04-27T03:10:23;100795.25;;;5.21;75.98
77110;BME280;66062;52.464;16.922;2023-04-27T03:12:49;100794.31;;;5.22;76.04
77110;BME280;66062;52.464;16.922;2023-04-27T03:15:14;100795.16;;;5.22;76.19
77110;BME280;66062;52.464;16.922;2023-04-27T03:17:40;100798.34;;;5.27;76.48
77110;BME280;66062;52.464;16.922;2023-04-27T03:20:06;100805.84;;;5.21;76.71
77110;BME280;66062;52.464;16.922;2023-04-27T03:22:34;100795.47;;;5.18;75.79
77110;BME280;66062;52.464;16.922;2023-04-27T03:25:00;100797.56;;;5.12;76.54
77110;BME280;66062;52.464;16.922;2023-04-27T03:27:25;100809.66;;;5.16;76.31
77110;BME280;66062;52.464;16.922;2023-04-27T03:29:51;100804.13;;;5.20;76.37
77110;BME280;66062;52.464;16.922;2023-04-27T03:32:19;100814.53;;;5.23;76.21
77110;BME280;66062;52.464;16.922;2023-04-27T03:34:45;100805.84;;;5.21;77.11
77110;BME280;66062;52.464;16.922;2023-04-27T03:37:11;100809.44;;;5.20;76.93
77110;BME280;66062;52.464;16.922;2023-04-27T03:39:36;100813.22;;;5.15;76.63
77110;BME280;66062;52.464;16.922;2023-04-27T03:42:02;100809.75;;;5.15;76.96
77110;BME280;66062;52.464;16.922;2023-04-27T03:44:27;100815.97;;;5.14;77.42
77110;BME280;66062;52.464;16.922;2023-04-27T03:46:54;100811.53;;;5.14;77.30
77110;BME280;66062;52.464;16.922;2023-04-27T03:49:20;100812.28;;;5.16;78.02
77110;BME280;66062;52.464;16.922;2023-04-27T03:51:45;100824.56;;;5.18;77.47
77110;BME280;66062;52.464;16.922;2023-04-27T03:54:10;100821.56;;;5.09;77.66
77110;BME280;66062;52.464;16.922;2023-04-27T03:56:36;100821.22;;;5.01;77.92
77110;BME280;66062;52.464;16.922;2023-04-27T03:59:03;100824.81;;;5.00;78.48
77110;BME280;66062;52.464;16.922;2023-04-27T04:01:29;100828.88;;;5.18;77.33
77110;BME280;66062;52.464;16.922;2023-04-27T04:03:55;100820.31;;;5.15;77.37
77110;BME280;66062;52.464;16.922;2023-04-27T04:06:20;100823.81;;;5.15;77.18
77110;BME280;66062;52.464;16.922;2023-04-27T04:08:46;100828.81;;;5.20;77.31
77110;BME280;66062;52.464;16.922;2023-04-27T04:11:11;100822.50;;;5.08;78.37
77110;BME280;66062;52.464;16.922;2023-04-27T04:13:36;100838.19;;;5.11;77.58
77110;BME280;66062;52.464;16.922;2023-04-27T04:16:02;100831.66;;;5.17;77.97
77110;BME280;66062;52.464;16.922;2023-04-27T04:18:28;100825.97;;;5.23;77.58
77110;BME280;66062;52.464;16.922;2023-04-27T04:20:54;100839.09;;;5.25;76.83
77110;BME280;66062;52.464;16.922;2023-04-27T04:23:19;100838.03;;;5.27;77.39
77110;BME280;66062;52.464;16.922;2023-04-27T04:25:45;100840.19;;;5.35;77.07
77110;BME280;66062;52.464;16.922;2023-04-27T04:28:12;100840.00;;;5.38;77.75
77110;BME280;66062;52.464;16.922;2023-04-27T04:30:37;100841.63;;;5.26;77.23
77110;BME280;66062;52.464;16.922;2023-04-27T04:33:03;100842.41;;;5.41;77.08
77110;BME280;66062;52.464;16.922;2023-04-27T04:35:29;100847.50;;;5.44;76.91
77110;BME280;66062;52.464;16.922;2023-04-27T04:37:57;100847.63;;;5.42;76.96
77110;BME280;66062;52.464;16.922;2023-04-27T04:40:22;100853.56;;;5.46;77.26
77110;BME280;66062;52.464;16.922;2023-04-27T04:42:48;100852.41;;;5.50;77.28
77110;BME280;66062;52.464;16.922;2023-04-27T04:45:13;100855.31;;;5.72;76.77
77110;BME280;66062;52.464;16.922;2023-04-27T04:47:39;100843.88;;;5.84;75.20
77110;BME280;66062;52.464;16.922;2023-04-27T04:50:06;100854.00;;;6.05;75.39
77110;BME280;66062;52.464;16.922;2023-04-27T04:52:33;100855.81;;;6.17;74.91
77110;BME280;66062;52.464;16.922;2023-04-27T04:54:59;100858.34;;;6.31;73.53
77110;BME280;66062;52.464;16.922;2023-04-27T04:57:24;100853.25;;;6.53;73.00
77110;BME280;66062;52.464;16.922;2023-04-27T04:59:50;100854.63;;;6.46;73.71
77110;BME280;66062;52.464;16.922;2023-04-27T05:02:15;100857.47;;;6.56;72.71
77110;BME280;66062;52.464;16.922;2023-04-27T05:04:41;100851.34;;;6.55;73.11
77110;BME280;66062;52.464;16.922;2023-04-27T05:07:06;100853.34;;;6.64;72.70
77110;BME280;66062;52.464;16.922;2023-04-27T05:09:31;100858.00;;;6.73;72.09
77110;BME280;66062;52.464;16.922;2023-04-27T05:11:57;100861.69;;;6.83;72.02
77110;BME280;66062;52.464;16.922;2023-04-27T05:14:23;100861.84;;;7.06;72.74
77110;BME280;66062;52.464;16.922;2023-04-27T05:16:49;100866.84;;;7.21;71.39
77110;BME280;66062;52.464;16.922;2023-04-27T05:19:15;100863.41;;;7.32;70.44
77110;BME280;66062;52.464;16.922;2023-04-27T05:21:43;100866.88;;;7.45;69.35
77110;BME280;66062;52.464;16.922;2023-04-27T05:24:10;100867.50;;;7.25;70.65
77110;BME280;66062;52.464;16.922;2023-04-27T05:26:35;100875.66;;;7.22;70.44
77110;BME280;66062;52.464;16.922;2023-04-27T05:29:01;100878.78;;;7.16;70.34
77110;BME280;66062;52.464;16.922;2023-04-27T05:31:26;100885.06;;;7.02;71.17
77110;BME280;66062;52.464;16.922;2023-04-27T05:33:52;100882.69;;;7.23;70.58
77110;BME280;66062;52.464;16.922;2023-04-27T05:36:17;100890.66;;;7.23;71.03
77110;BME280;66062;52.464;16.922;2023-04-27T05:38:43;100884.28;;;7.25;70.57
77110;BME280;66062;52.464;16.922;2023-04-27T05:41:08;100896.78;;;7.36;69.94
77110;BME280;66062;52.464;16.922;2023-04-27T05:43:33;100895.50;;;7.29;70.19
77110;BME280;66062;52.464;16.922;2023-04-27T05:45:59;100893.28;;;7.23;70.89
77110;BME280;66062;52.464;16.922;2023-04-27T05:48:25;100898.91;;;7.31;69.67
77110;BME280;66062;52.464;16.922;2023-04-27T05:51:01;100898.16;;;7.29;70.15
77110;BME280;66062;52.464;16.922;2023-04-27T05:53:27;100899.22;;;7.26;69.95
77110;BME280;66062;52.464;16.922;2023-04-27T05:55:52;100890.38;;;7.39;69.68
77110;BME280;66062;52.464;16.922;2023-04-27T05:58:18;100899.53;;;7.58;68.88
77110;BME280;66062;52.464;16.922;2023-04-27T06:00:43;100898.63;;;7.70;68.77
77110;BME280;66062;52.464;16.922;2023-04-27T06:03:09;100898.94;;;7.90;67.26
77110;BME280;66062;52.464;16.922;2023-04-27T06:05:34;100897.03;;;8.03;67.19
77110;BME280;66062;52.464;16.922;2023-04-27T06:07:59;100898.50;;;8.18;67.24
77110;BME280;66062;52.464;16.922;2023-04-27T06:10:25;100896.19;;;8.48;64.95
77110;BME280;66062;52.464;16.922;2023-04-27T06:12:50;100896.81;;;8.06;65.96
77110;BME280;66062;52.464;16.922;2023-04-27T06:15:15;100900.47;;;8.16;65.90
77110;BME280;66062;52.464;16.922;2023-04-27T06:17:41;100900.91;;;8.45;65.01
77110;BME280;66062;52.464;16.922;2023-04-27T06:20:11;100895.22;;;8.72;63.73
77110;BME280;66062;52.464;16.922;2023-04-27T06:22:37;100902.22;;;8.95;62.60
77110;BME280;66062;52.464;16.922;2023-04-27T06:25:04;100902.97;;;8.64;63.12
77110;BME280;66062;52.464;16.922;2023-04-27T06:27:29;100898.84;;;8.37;64.84
77110;BME280;66062;52.464;16.922;2023-04-27T06:29:55;100899.81;;;8.47;63.69
77110;BME280;66062;52.464;16.922;2023-04-27T06:32:20;100899.25;;;8.20;64.45
77110;BME280;66062;52.464;16.922;2023-04-27T06:34:46;100902.88;;;8.19;64.28
77110;BME280;66062;52.464;16.922;2023-04-27T06:37:11;100911.81;;;8.07;64.99
77110;BME280;66062;52.464;16.922;2023-04-27T06:39:39;100906.63;;;8.16;65.84
77110;BME280;66062;52.464;16.922;2023-04-27T06:42:04;100908.16;;;8.08;65.24
77110;BME280;66062;52.464;16.922;2023-04-27T06:44:30;100905.88;;;8.14;64.85
77110;BME280;66062;52.464;16.922;2023-04-27T06:46:55;100905.38;;;8.55;63.64
77110;BME280;66062;52.464;16.922;2023-04-27T06:49:20;100905.25;;;8.90;63.07
77110;BME280;66062;52.464;16.922;2023-04-27T06:51:47;100913.13;;;8.92;62.52
77110;BME280;66062;52.464;16.922;2023-04-27T06:54:12;100906.00;;;8.81;62.50
77110;BME280;66062;52.464;16.922;2023-04-27T06:56:38;100900.41;;;8.84;62.96
77110;BME280;66062;52.464;16.922;2023-04-27T06:59:03;100908.53;;;8.72;63.42
77110;BME280;66062;52.464;16.922;2023-04-27T07:01:29;100909.72;;;9.01;61.98
77110;BME280;66062;52.464;16.922;2023-04-27T07:03:54;100906.78;;;9.26;62.56
77110;BME280;66062;52.464;16.922;2023-04-27T07:06:21;100897.91;;;10.01;59.21
77110;BME280;66062;52.464;16.922;2023-04-27T07:08:47;100900.00;;;11.39;55.48
77110;BME280;66062;52.464;16.922;2023-04-27T07:11:12;100893.47;;;11.13;53.08
77110;BME280;66062;52.464;16.922;2023-04-27T07:13:38;100892.78;;;10.71;54.45
77110;BME280;66062;52.464;16.922;2023-04-27T07:16:03;100904.31;;;10.51;55.01
77110;BME280;66062;52.464;16.922;2023-04-27T07:18:29;100903.81;;;11.37;54.04
77110;BME280;66062;52.464;16.922;2023-04-27T07:20:54;100890.53;;;13.42;46.71
77110;BME280;66062;52.464;16.922;2023-04-27T07:23:22;100893.22;;;14.82;43.30
77110;BME280;66062;52.464;16.922;2023-04-27T07:25:48;100889.50;;;16.08;39.44
77110;BME280;66062;52.464;16.922;2023-04-27T07:28:13;100883.88;;;16.58;37.71
77110;BME280;66062;52.464;16.922;2023-04-27T07:30:39;100882.56;;;16.70;37.80
77110;BME280;66062;52.464;16.922;2023-04-27T07:33:07;100884.03;;;16.73;36.13
77110;BME280;66062;52.464;16.922;2023-04-27T07:35:33;100886.44;;;17.45;35.34
77110;BME280;66062;52.464;16.922;2023-04-27T07:37:59;100881.97;;;17.61;34.50
77110;BME280;66062;52.464;16.922;2023-04-27T07:40:26;100887.91;;;17.48;35.48
77110;BME280;66062;52.464;16.922;2023-04-27T07:42:52;100884.16;;;18.25;30.44
77110;BME280;66062;52.464;16.922;2023-04-27T07:45:18;100883.31;;;18.62;30.64
77110;BME280;66062;52.464;16.922;2023-04-27T07:47:44;100885.84;;;17.27;33.03
77110;BME280;66062;52.464;16.922;2023-04-27T07:50:10;100889.41;;;18.79;31.18
77110;BME280;66062;52.464;16.922;2023-04-27T07:52:38;100873.72;;;19.97;28.77
77110;BME280;66062;52.464;16.922;2023-04-27T07:55:04;100888.34;;;16.98;34.24
77110;BME280;66062;52.464;16.922;2023-04-27T07:57:30;100890.00;;;18.52;29.96
77110;BME280;66062;52.464;16.922;2023-04-27T07:59:56;100891.72;;;18.82;29.32
77110;BME280;66062;52.464;16.922;2023-04-27T08:02:21;100883.06;;;17.74;29.73
77110;BME280;66062;52.464;16.922;2023-04-27T08:04:48;100893.44;;;17.24;31.25
77110;BME280;66062;52.464;16.922;2023-04-27T08:07:16;100890.19;;;16.97;31.48
77110;BME280;66062;52.464;16.922;2023-04-27T08:09:42;100893.06;;;17.88;30.53
77110;BME280;66062;52.464;16.922;2023-04-27T08:12:08;100878.38;;;18.95;29.35
77110;BME280;66062;52.464;16.922;2023-04-27T08:14:34;100902.06;;;13.88;37.85
77110;BME280;66062;52.464;16.922;2023-04-27T08:17:00;100893.25;;;17.64;30.36
77110;BME280;66062;52.464;16.922;2023-04-27T08:19:25;100896.63;;;18.12;29.58
77110;BME280;66062;52.464;16.922;2023-04-27T08:21:51;100892.53;;;18.53;30.52
77110;BME280;66062;52.464;16.922;2023-04-27T08:24:16;100888.69;;;20.35;27.54
77110;BME280;66062;52.464;16.922;2023-04-27T08:26:45;100891.22;;;19.94;27.67
77110;BME280;66062;52.464;16.922;2023-04-27T08:29:10;100888.50;;;20.65;25.92
77110;BME280;66062;52.464;16.922;2023-04-27T08:31:36;100895.50;;;19.46;27.10
77110;BME280;66062;52.464;16.922;2023-04-27T08:34:01;100896.91;;;17.94;28.77
77110;BME280;66062;52.464;16.922;2023-04-27T08:36:27;100899.78;;;18.38;28.33
77110;BME280;66062;52.464;16.922;2023-04-27T08:38:53;100899.56;;;17.79;29.82
77110;BME280;66062;52.464;16.922;2023-04-27T08:41:19;100889.66;;;18.69;28.53
77110;BME280;66062;52.464;16.922;2023-04-27T08:43:46;100898.59;;;18.18;29.08
77110;BME280;66062;52.464;16.922;2023-04-27T08:46:20;100893.28;;;19.06;28.47
77110;BME280;66062;52.464;16.922;2023-04-27T08:48:48;100888.75;;;19.42;26.69
77110;BME280;66062;52.464;16.922;2023-04-27T08:51:14;100890.69;;;19.63;27.27
77110;BME280;66062;52.464;16.922;2023-04-27T08:53:44;100900.84;;;18.96;27.33
77110;BME280;66062;52.464;16.922;2023-04-27T08:56:11;100897.97;;;20.26;25.38
77110;BME280;66062;52.464;16.922;2023-04-27T08:58:37;100898.63;;;19.64;27.74
77110;BME280;66062;52.464;16.922;2023-04-27T09:01:06;100899.09;;;16.35;30.32
77110;BME280;66062;52.464;16.922;2023-04-27T09:03:33;100912.06;;;15.32;33.59
77110;BME280;66062;52.464;16.922;2023-04-27T09:06:02;100903.91;;;17.27;28.80
77110;BME280;66062;52.464;16.922;2023-04-27T09:08:28;100904.78;;;17.50;28.30
77110;BME280;66062;52.464;16.922;2023-04-27T09:10:54;100891.59;;;19.49;25.01
77110;BME280;66062;52.464;16.922;2023-04-27T09:13:20;100892.22;;;19.51;24.82
77110;BME280;66062;52.464;16.922;2023-04-27T09:15:50;100893.94;;;19.22;24.95
77110;BME280;66062;52.464;16.922;2023-04-27T09:18:20;100897.84;;;17.86;26.11
77110;BME280;66062;52.464;16.922;2023-04-27T09:20:50;100899.44;;;15.99;28.88
77110;BME280;66062;52.464;16.922;2023-04-27T09:23:29;100895.94;;;16.94;27.16
77110;BME280;66062;52.464;16.922;2023-04-27T09:25:57;100890.56;;;17.64;26.17
77110;BME280;66062;52.464;16.922;2023-04-27T09:28:28;100885.16;;;19.20;25.19
77110;BME280;66062;52.464;16.922;2023-04-27T09:30:55;100888.91;;;19.19;25.05
77110;BME280;66062;52.464;16.922;2023-04-27T09:33:23;100892.59;;;17.31;26.88
77110;BME280;66062;52.464;16.922;2023-04-27T09:35:48;100881.66;;;19.41;24.71
77110;BME280;66062;52.464;16.922;2023-04-27T09:38:16;100879.47;;;19.45;22.35
77110;BME280;66062;52.464;16.922;2023-04-27T09:40:42;100877.94;;;18.39;24.96
77110;BME280;66062;52.464;16.922;2023-04-27T09:43:08;100884.75;;;18.50;25.40
77110;BME280;66062;52.464;16.922;2023-04-27T09:45:34;100885.66;;;19.60;24.00
77110;BME280;66062;52.464;16.922;2023-04-27T09:48:03;100898.78;;;20.27;23.73
77110;BME280;66062;52.464;16.922;2023-04-27T09:50:28;100876.88;;;21.79;21.56
77110;BME280;66062;52.464;16.922;2023-04-27T09:52:55;100876.50;;;21.95;20.92
77110;BME280;66062;52.464;16.922;2023-04-27T09:55:27;100884.00;;;18.04;23.87
77110;BME280;66062;52.464;16.922;2023-04-27T10:03:32;100878.72;;;17.88;24.67
77110;BME280;66062;52.464;16.922;2023-04-27T10:08:55;100885.56;;;13.30;32.75
77110;BME280;66062;52.464;16.922;2023-04-27T10:11:20;100885.38;;;13.04;34.21
77110;BME280;66062;52.464;16.922;2023-04-27T10:13:54;100889.94;;;12.57;35.86
77110;BME280;66062;52.464;16.922;2023-04-27T10:16:21;100879.97;;;14.63;32.97
77110;BME280;66062;52.464;16.922;2023-04-27T10:18:51;100876.88;;;15.92;29.72
77110;BME280;66062;52.464;16.922;2023-04-27T10:21:19;100884.59;;;14.79;31.91
77110;BME280;66062;52.464;16.922;2023-04-27T10:23:46;100882.13;;;13.73;33.55
77110;BME280;66062;52.464;16.922;2023-04-27T10:26:23;100887.91;;;14.39;32.68
77110;BME280;66062;52.464;16.922;2023-04-27T10:29:07;100881.06;;;17.37;27.73
77110;BME280;66062;52.464;16.922;2023-04-27T10:31:33;100871.19;;;19.02;25.98
77110;BME280;66062;52.464;16.922;2023-04-27T10:34:09;100887.38;;;17.52;26.76
77110;BME280;66062;52.464;16.922;2023-04-27T10:36:38;100894.84;;;14.75;30.27
77110;BME280;66062;52.464;16.922;2023-04-27T10:39:20;100904.69;;;12.70;33.83
77110;BME280;66062;52.464;16.922;2023-04-27T10:41:55;100907.56;;;11.34;36.79
77110;BME280;66062;52.464;16.922;2023-04-27T10:44:29;100911.72;;;11.08;38.54
77110;BME280;66062;52.464;16.922;2023-04-27T10:46:59;100910.72;;;10.69;38.51
77110;BME280;66062;52.464;16.922;2023-04-27T10:49:29;100921.28;;;10.70;39.58
77110;BME280;66062;52.464;16.922;2023-04-27T10:51:57;100916.34;;;10.66;39.67
77110;BME280;66062;52.464;16.922;2023-04-27T10:54:29;100921.75;;;10.55;40.68
77110;BME280;66062;52.464;16.922;2023-04-27T10:57:21;100920.44;;;10.70;39.84
77110;BME280;66062;52.464;16.922;2023-04-27T10:59:52;100912.84;;;11.05;39.12
77110;BME280;66062;52.464;16.922;2023-04-27T11:02:27;100913.50;;;10.98;37.84
77110;BME280;66062;52.464;16.922;2023-04-27T11:04:54;100908.81;;;10.81;38.63
77110;BME280;66062;52.464;16.922;2023-04-27T11:07:23;100923.28;;;10.78;38.71
77110;BME280;66062;52.464;16.922;2023-04-27T11:09:49;100918.28;;;10.94;38.76
77110;BME280;66062;52.464;16.922;2023-04-27T11:12:15;100922.41;;;11.08;38.89
77110;BME280;66062;52.464;16.922;2023-04-27T11:14:40;100912.91;;;11.34;38.10
77110;BME280;66062;52.464;16.922;2023-04-27T11:17:06;100901.84;;;13.81;32.96
77110;BME280;66062;52.464;16.922;2023-04-27T11:19:31;100894.59;;;15.45;30.11
77110;BME280;66062;52.464;16.922;2023-04-27T11:22:05;100903.03;;;14.66;30.87
77110;BME280;66062;52.464;16.922;2023-04-27T11:24:31;100910.53;;;12.93;32.64
77110;BME280;66062;52.464;16.922;2023-04-27T11:26:56;100922.88;;;12.01;34.60
77110;BME280;66062;52.464;16.922;2023-04-27T11:29:22;100920.06;;;11.24;35.78
77110;BME280;66062;52.464;16.922;2023-04-27T11:31:50;100931.91;;;10.91;36.62
77110;BME280;66062;52.464;16.922;2023-04-27T11:34:18;100934.91;;;10.77;37.93
77110;BME280;66062;52.464;16.922;2023-04-27T11:39:26;100934.56;;;11.81;37.11
77110;BME280;66062;52.464;16.922;2023-04-27T11:41:52;100933.84;;;12.08;35.80
77110;BME280;66062;52.464;16.922;2023-04-27T11:44:17;100930.91;;;12.76;35.61
77110;BME280;66062;52.464;16.922;2023-04-27T11:46:43;100936.94;;;12.32;35.53
77110;BME280;66062;52.464;16.922;2023-04-27T11:49:09;100930.56;;;12.52;34.81
77110;BME280;66062;52.464;16.922;2023-04-27T11:51:35;100927.53;;;12.65;34.15
77110;BME280;66062;52.464;16.922;2023-04-27T11:54:04;100923.59;;;13.06;33.27
77110;BME280;66062;52.464;16.922;2023-04-27T11:56:40;100924.81;;;13.21;32.97
77110;BME280;66062;52.464;16.922;2023-04-27T11:59:17;100929.22;;;13.12;33.25
77110;BME280;66062;52.464;16.922;2023-04-27T12:01:43;100925.59;;;13.31;32.92
77110;BME280;66062;52.464;16.922;2023-04-27T12:04:09;100921.94;;;13.32;32.20
77110;BME280;66062;52.464;16.922;2023-04-27T12:06:34;100935.25;;;13.24;32.42
77110;BME280;66062;52.464;16.922;2023-04-27T12:09:00;100922.44;;;13.45;31.93
77110;BME280;66062;52.464;16.922;2023-04-27T12:11:25;100922.81;;;13.50;31.99
77110;BME280;66062;52.464;16.922;2023-04-27T12:13:54;100924.63;;;13.32;32.64
77110;BME280;66062;52.464;16.922;2023-04-27T12:16:20;100919.09;;;13.34;32.36
77110;BME280;66062;52.464;16.922;2023-04-27T12:18:50;100922.03;;;13.13;33.31
77110;BME280;66062;52.464;16.922;2023-04-27T12:21:16;100927.22;;;12.77;34.35
77110;BME280;66062;52.464;16.922;2023-04-27T12:23:42;100933.75;;;12.65;34.22
77110;BME280;66062;52.464;16.922;2023-04-27T12:26:08;100924.06;;;12.92;35.09
77110;BME280;66062;52.464;16.922;2023-04-27T12:28:34;100923.13;;;12.83;35.89
77110;BME280;66062;52.464;16.922;2023-04-27T12:31:02;100920.06;;;13.60;34.53
77110;BME280;66062;52.464;16.922;2023-04-27T12:33:28;100925.91;;;13.73;34.20
77110;BME280;66062;52.464;16.922;2023-04-27T12:35:54;100932.44;;;13.70;34.00
77110;BME280;66062;52.464;16.922;2023-04-27T12:38:20;100928.97;;;12.69;35.36
77110;BME280;66062;52.464;16.922;2023-04-27T12:40:46;100918.53;;;12.66;36.89
77110;BME280;66062;52.464;16.922;2023-04-27T12:43:12;100929.88;;;13.24;35.92
77110;BME280;66062;52.464;16.922;2023-04-27T12:45:37;100938.31;;;12.92;34.92
77110;BME280;66062;52.464;16.922;2023-04-27T12:48:04;100929.41;;;12.64;34.91
77110;BME280;66062;52.464;16.922;2023-04-27T12:50:35;100925.66;;;12.38;35.69
77110;BME280;66062;52.464;16.922;2023-04-27T12:53:02;100938.75;;;12.31;35.59